createdAt,value
2017-01-16T00:02:10.568Z,-3.64
2017-01-16T00:04:22.800Z,-3.66
2017-01-16T00:06:35.142Z,-3.66
2017-01-16T00:08:47.518Z,-3.64
2017-01-16T00:11:00.008Z,-3.64
2017-01-16T00:13:12.310Z,-3.64
2017-01-16T00:15:24.902Z,-3.64
2017-01-16T00:17:37.287Z,-3.64
2017-01-16T00:19:49.485Z,-3.64
2017-01-16T00:22:01.705Z,-3.63
2017-01-16T00:24:13.898Z,-3.64
2017-01-16T00:26:26.301Z,-3.64
2017-01-16T00:28:38.717Z,-3.64
2017-01-16T00:30:46.004Z,-3.64
2017-01-16T00:32:53.208Z,-3.64
2017-01-16T00:35:05.579Z,-3.64
2017-01-16T00:37:18.005Z,-3.64
2017-01-16T00:39:25.290Z,-3.63
2017-01-16T00:41:37.611Z,-3.64
2017-01-16T00:43:49.972Z,-3.66
2017-01-16T00:45:52.195Z,-3.64
2017-01-16T00:48:04.733Z,-3.63
2017-01-16T00:50:17.151Z,-3.63
2017-01-16T00:52:29.368Z,-3.64
2017-01-16T00:54:41.601Z,-3.64
2017-01-16T00:56:54.053Z,-3.63
2017-01-16T00:59:06.473Z,-3.64
2017-01-16T01:01:18.885Z,-3.66
2017-01-16T01:03:31.256Z,-3.66
2017-01-16T01:05:43.514Z,-3.64
2017-01-16T01:07:55.804Z,-3.64
2017-01-16T01:10:08.268Z,-3.66
2017-01-16T01:12:20.567Z,-3.66
2017-01-16T01:14:27.841Z,-3.67
2017-01-16T01:16:39.994Z,-3.67
2017-01-16T01:18:52.225Z,-3.69
2017-01-16T01:21:04.556Z,-3.72
2017-01-16T01:23:17.208Z,-3.75
2017-01-16T01:25:24.597Z,-3.78
2017-01-16T01:27:31.861Z,-3.76
2017-01-16T01:29:44.240Z,-3.79
2017-01-16T01:31:56.454Z,-3.81
2017-01-16T01:34:03.731Z,-3.82
2017-01-16T01:36:16.225Z,-3.85
2017-01-16T01:38:28.525Z,-3.86
2017-01-16T01:40:40.832Z,-3.88
2017-01-16T01:42:43.185Z,-3.9
2017-01-16T01:44:55.391Z,-3.9
2017-01-16T01:47:07.799Z,-3.93
2017-01-16T01:49:19.974Z,-3.93
2017-01-16T01:51:32.241Z,-3.94
2017-01-16T01:53:44.506Z,-3.94
2017-01-16T01:55:57.323Z,-3.96
2017-01-16T01:58:09.726Z,-3.96
2017-01-16T02:00:22.036Z,-3.97
2017-01-16T02:02:29.321Z,-3.99
2017-01-16T02:04:41.608Z,-4
2017-01-16T02:06:48.873Z,-4
2017-01-16T02:09:01.107Z,-4.03
2017-01-16T02:11:13.331Z,-4.03
2017-01-16T02:13:25.565Z,-4.03
2017-01-16T02:15:37.804Z,-4.04
2017-01-16T02:17:50.357Z,-4.04
2017-01-16T02:19:57.811Z,-4.07
2017-01-16T02:22:10.006Z,-4.07
2017-01-16T02:24:22.529Z,-4.1
2017-01-16T02:26:34.889Z,-4.11
2017-01-16T02:28:47.525Z,-4.11
2017-01-16T02:30:59.693Z,-4.12
2017-01-16T02:33:12.061Z,-4.12
2017-01-16T02:35:24.303Z,-4.14
2017-01-16T02:37:36.617Z,-4.15
2017-01-16T02:39:48.917Z,-4.17
2017-01-16T02:42:01.319Z,-4.17
2017-01-16T02:44:13.430Z,-4.17
2017-01-16T02:46:25.805Z,-4.18
2017-01-16T02:48:33.206Z,-4.2
2017-01-16T02:50:45.507Z,-4.21
2017-01-16T02:53:00.707Z,-4.2
2017-01-16T02:55:13.074Z,-4.21
2017-01-16T02:57:20.349Z,-4.22
2017-01-16T02:59:32.532Z,-4.22
2017-01-16T03:01:45.089Z,-4.22
2017-01-16T03:03:57.434Z,-4.24
2017-01-16T03:06:09.571Z,-4.22
2017-01-16T03:08:16.852Z,-4.22
2017-01-16T03:10:29.145Z,-4.24
2017-01-16T03:12:41.340Z,-4.24
2017-01-16T03:14:53.581Z,-4.24
2017-01-16T03:17:05.738Z,-4.25
2017-01-16T03:19:17.963Z,-4.24
2017-01-16T03:21:30.118Z,-4.22
2017-01-16T03:23:42.432Z,-4.22
2017-01-16T03:25:54.758Z,-4.22
2017-01-16T03:28:06.987Z,-4.21
2017-01-16T03:30:19.358Z,-4.21
2017-01-16T03:32:32.677Z,-4.22
2017-01-16T03:34:44.961Z,-4.22
2017-01-16T03:36:57.801Z,-4.21
2017-01-16T03:39:04.965Z,-4.22
2017-01-16T03:41:17.367Z,-4.21
2017-01-16T03:43:29.773Z,-4.22
2017-01-16T03:45:36.982Z,-4.2
2017-01-16T03:47:49.331Z,-4.21
2017-01-16T03:50:01.657Z,-4.2
2017-01-16T03:52:13.987Z,-4.2
2017-01-16T03:54:26.266Z,-4.2
2017-01-16T03:56:38.467Z,-4.2
2017-01-16T03:58:50.789Z,-4.2
2017-01-16T04:01:04.111Z,-4.2
2017-01-16T04:03:16.562Z,-4.2
2017-01-16T04:05:23.831Z,-4.2
2017-01-16T04:07:36.099Z,-4.18
2017-01-16T04:09:48.640Z,-4.18
2017-01-16T04:12:01.345Z,-4.18
2017-01-16T04:14:13.608Z,-4.18
2017-01-16T04:16:25.995Z,-4.18
2017-01-16T04:18:38.432Z,-4.17
2017-01-16T04:20:50.906Z,-4.17
2017-01-16T04:22:58.592Z,-4.17
2017-01-16T04:25:10.906Z,-4.15
2017-01-16T04:27:23.089Z,-4.15
2017-01-16T04:29:35.628Z,-4.14
2017-01-16T04:31:48.070Z,-4.15
2017-01-16T04:34:00.529Z,-4.14
2017-01-16T04:36:07.808Z,-4.14
2017-01-16T04:38:15.080Z,-4.14
2017-01-16T04:40:27.303Z,-4.12
2017-01-16T04:42:39.747Z,-4.14
2017-01-16T04:44:52.331Z,-4.12
2017-01-16T04:47:04.720Z,-4.11
2017-01-16T04:49:16.905Z,-4.11
2017-01-16T04:51:29.047Z,-4.11
2017-01-16T04:53:41.525Z,-4.11
2017-01-16T04:55:53.919Z,-4.11
2017-01-16T04:58:06.182Z,-4.1
2017-01-16T05:00:18.514Z,-4.1
2017-01-16T05:02:30.715Z,-4.11
2017-01-16T05:04:43.116Z,-4.07
2017-01-16T05:06:55.306Z,-4.07
2017-01-16T05:09:07.623Z,-4.07
2017-01-16T05:11:19.939Z,-4.06
2017-01-16T05:13:32.226Z,-4.06
2017-01-16T05:15:44.478Z,-4.07
2017-01-16T05:17:56.907Z,-4.07
2017-01-16T05:20:09.379Z,-4.07
2017-01-16T05:22:21.672Z,-4.06
2017-01-16T05:24:33.933Z,-4.04
2017-01-16T05:26:46.248Z,-4.06
2017-01-16T05:28:58.525Z,-4.04
2017-01-16T05:31:05.938Z,-4.06
2017-01-16T05:33:18.166Z,-4.04
2017-01-16T05:35:20.452Z,-4.03
2017-01-16T05:37:27.795Z,-4.03
2017-01-16T05:39:40.076Z,-4.03
2017-01-16T05:41:47.424Z,-4.03
2017-01-16T05:43:59.664Z,-4.03
2017-01-16T05:46:06.943Z,-4.03
2017-01-16T05:48:19.283Z,-4.03
2017-01-16T05:50:31.572Z,-4.03
2017-01-16T05:52:44.421Z,-4.01
2017-01-16T05:54:57.748Z,-4.01
2017-01-16T05:57:10.058Z,-4.01
2017-01-16T05:59:22.318Z,-4.01
2017-01-16T06:01:34.632Z,-4.03
2017-01-16T06:03:47.000Z,-4.01
2017-01-16T06:05:59.420Z,-4.01
2017-01-16T06:08:06.805Z,-4.01
2017-01-16T06:10:19.105Z,-4
2017-01-16T06:12:32.365Z,-4
2017-01-16T06:14:44.614Z,-4
2017-01-16T06:16:56.763Z,-3.99
2017-01-16T06:19:09.136Z,-3.99
2017-01-16T06:21:22.664Z,-3.99
2017-01-16T06:23:30.037Z,-3.97
2017-01-16T06:25:42.317Z,-3.97
2017-01-16T06:27:55.059Z,-3.97
2017-01-16T06:30:07.579Z,-3.97
2017-01-16T06:32:19.810Z,-3.96
2017-01-16T06:34:32.151Z,-3.96
2017-01-16T06:36:39.435Z,-3.97
2017-01-16T06:38:51.837Z,-3.97
2017-01-16T06:41:04.143Z,-3.96
2017-01-16T06:43:11.466Z,-3.97
2017-01-16T06:45:23.669Z,-3.97
2017-01-16T06:47:36.027Z,-3.97
2017-01-16T06:49:43.413Z,-3.97
2017-01-16T06:51:55.718Z,-3.96
2017-01-16T06:54:07.959Z,-3.96
2017-01-16T06:56:20.332Z,-3.97
2017-01-16T06:58:32.626Z,-3.94
2017-01-16T07:00:44.911Z,-3.94
2017-01-16T07:02:57.532Z,-3.96
2017-01-16T07:05:09.896Z,-3.96
2017-01-16T07:07:22.351Z,-3.94
2017-01-16T07:09:34.735Z,-3.94
2017-01-16T07:11:46.896Z,-3.94
2017-01-16T07:13:59.042Z,-3.94
2017-01-16T07:16:01.521Z,-3.96
2017-01-16T07:18:09.934Z,-3.94
2017-01-16T07:20:22.333Z,-3.93
2017-01-16T07:22:34.652Z,-3.91
2017-01-16T07:24:42.239Z,-3.93
2017-01-16T07:26:55.016Z,-3.91
2017-01-16T07:29:08.718Z,-3.9
2017-01-16T07:31:24.136Z,-3.9
2017-01-16T07:33:36.636Z,-3.88
2017-01-16T07:35:44.309Z,-3.86
2017-01-16T07:37:57.133Z,-3.86
2017-01-16T07:40:05.137Z,-3.83
2017-01-16T07:42:12.816Z,-3.82
2017-01-16T07:44:25.246Z,-3.81
2017-01-16T07:46:37.773Z,-3.78
2017-01-16T07:48:40.225Z,-3.76
2017-01-16T07:50:52.602Z,-3.75
2017-01-16T07:53:05.255Z,-3.72
2017-01-16T07:55:17.533Z,-3.71
2017-01-16T07:57:29.946Z,-3.67
2017-01-16T07:59:42.444Z,-3.66
2017-01-16T08:01:49.695Z,-3.66
2017-01-16T08:04:02.075Z,-3.62
2017-01-16T08:06:14.229Z,-3.62
2017-01-16T08:08:26.538Z,-3.59
2017-01-16T08:10:33.745Z,-3.56
2017-01-16T08:12:46.514Z,-3.54
2017-01-16T08:14:58.696Z,-3.52
2017-01-16T08:17:10.968Z,-3.48
2017-01-16T08:19:23.383Z,-3.46
2017-01-16T08:21:35.694Z,-3.42
2017-01-16T08:23:47.971Z,-3.41
2017-01-16T08:26:00.333Z,-3.38
2017-01-16T08:28:12.628Z,-3.35
2017-01-16T08:30:24.826Z,-3.35
2017-01-16T08:32:37.035Z,-3.3
2017-01-16T08:34:49.330Z,-3.25
2017-01-16T08:37:01.542Z,-3.23
2017-01-16T08:39:08.928Z,-3.18
2017-01-16T08:41:21.237Z,-3.15
2017-01-16T08:43:33.451Z,-3.12
2017-01-16T08:45:46.072Z,-3.06
2017-01-16T08:47:58.639Z,-3
2017-01-16T08:50:11.177Z,-2.97
2017-01-16T08:52:23.408Z,-2.91
2017-01-16T08:54:30.945Z,-2.89
2017-01-16T08:56:43.256Z,-2.86
2017-01-16T08:58:55.494Z,-2.85
2017-01-16T09:01:07.633Z,-2.81
2017-01-16T09:03:19.843Z,-2.79
2017-01-16T09:05:32.228Z,-2.74
2017-01-16T09:07:45.463Z,-2.7
2017-01-16T09:09:57.940Z,-2.7
2017-01-16T09:12:10.374Z,-2.68
2017-01-16T09:14:22.687Z,-2.64
2017-01-16T09:16:38.363Z,-2.6
2017-01-16T09:18:50.956Z,-2.56
2017-01-16T09:20:58.624Z,-2.55
2017-01-16T09:23:11.043Z,-2.49
2017-01-16T09:25:23.371Z,-2.45
2017-01-16T09:27:35.879Z,-2.39
2017-01-16T09:29:48.184Z,-2.34
2017-01-16T09:32:00.470Z,-2.27
2017-01-16T09:34:12.730Z,-2.2
2017-01-16T09:36:20.191Z,-2.12
2017-01-16T09:38:27.431Z,-2.03
2017-01-16T09:40:34.629Z,-2
2017-01-16T09:42:46.932Z,-1.95
2017-01-16T09:45:06.233Z,-1.9
2017-01-16T09:47:31.296Z,-1.84
2017-01-16T09:49:46.300Z,-1.77
2017-01-16T09:52:03.662Z,-1.74
2017-01-16T09:54:24.326Z,-1.72
2017-01-16T09:56:37.022Z,-1.66
2017-01-16T09:58:49.399Z,-1.62
2017-01-16T10:01:01.790Z,-1.58
2017-01-16T10:03:14.001Z,-1.55
2017-01-16T10:05:26.370Z,-1.49
2017-01-16T10:07:33.717Z,-1.45
2017-01-16T10:09:46.130Z,-1.41
2017-01-16T10:11:58.512Z,-1.37
2017-01-16T10:14:10.824Z,-1.35
2017-01-16T10:16:23.213Z,-1.34
2017-01-16T10:18:35.416Z,-1.31
2017-01-16T10:20:47.729Z,-1.28
2017-01-16T10:23:01.203Z,-1.23
2017-01-16T10:25:13.644Z,-1.17
2017-01-16T10:27:24.412Z,-1.15
2017-01-16T10:29:36.640Z,-1.12
2017-01-16T10:31:45.105Z,-1.07
2017-01-16T10:33:57.642Z,-1.04
2017-01-16T10:36:09.922Z,-0.99
2017-01-16T10:38:22.335Z,-0.95
2017-01-16T10:40:34.546Z,-0.91
2017-01-16T10:42:46.837Z,-0.85
2017-01-16T10:44:59.092Z,-0.8
2017-01-16T10:47:11.444Z,-0.76
2017-01-16T10:49:23.828Z,-0.7
2017-01-16T10:51:36.124Z,-0.64
2017-01-16T10:53:48.345Z,-0.54
2017-01-16T10:56:00.680Z,-0.44
2017-01-16T10:58:13.043Z,-0.36
2017-01-16T11:00:20.440Z,-0.25
2017-01-16T11:02:27.811Z,-0.18
2017-01-16T11:04:33.460Z,-0.11
2017-01-16T11:06:46.103Z,-0.11
2017-01-16T11:08:48.439Z,-0.08
2017-01-16T11:11:00.836Z,-0.05
2017-01-16T11:13:13.279Z,-0.03
2017-01-16T11:15:20.760Z,0.02
2017-01-16T11:17:23.092Z,0.08
2017-01-16T11:19:35.323Z,0.11
2017-01-16T11:21:47.614Z,0.15
2017-01-16T11:23:49.845Z,0.18
2017-01-16T11:26:02.164Z,0.18
2017-01-16T11:28:14.379Z,0.2
2017-01-16T11:30:26.513Z,0.17
2017-01-16T11:32:28.718Z,0.17
2017-01-16T11:34:40.860Z,0.17
2017-01-16T11:36:48.210Z,0.15
2017-01-16T11:38:55.588Z,0.14
2017-01-16T11:41:07.895Z,0.13
2017-01-16T11:43:20.236Z,0.11
2017-01-16T11:45:32.726Z,0.11
2017-01-16T11:47:45.021Z,0.11
2017-01-16T11:49:57.234Z,0.13
2017-01-16T11:52:09.474Z,0.13
2017-01-16T11:54:21.698Z,0.13
2017-01-16T11:56:33.996Z,0.14
2017-01-16T11:58:46.401Z,0.14
2017-01-16T12:00:58.689Z,0.15
2017-01-16T12:03:10.921Z,0.18
2017-01-16T12:05:23.192Z,0.18
2017-01-16T12:07:30.652Z,0.21
2017-01-16T12:09:42.840Z,0.24
2017-01-16T12:11:55.188Z,0.24
2017-01-16T12:14:02.711Z,0.24
2017-01-16T12:16:15.398Z,0.24
2017-01-16T12:18:27.633Z,0.24
2017-01-16T12:20:39.892Z,0.24
2017-01-16T12:22:52.091Z,0.23
2017-01-16T12:25:04.475Z,0.24
2017-01-16T12:27:06.862Z,0.21
2017-01-16T12:29:19.126Z,0.2
2017-01-16T12:31:31.670Z,0.2
2017-01-16T12:33:43.885Z,0.2
2017-01-16T12:35:56.271Z,0.21
2017-01-16T12:38:08.486Z,0.23
2017-01-16T12:40:20.685Z,0.24
2017-01-16T12:42:33.079Z,0.26
2017-01-16T12:44:40.235Z,0.26
2017-01-16T12:46:52.567Z,0.26
2017-01-16T12:49:04.959Z,0.26
2017-01-16T12:51:21.158Z,0.26
2017-01-16T12:53:28.672Z,0.26
2017-01-16T12:55:40.949Z,0.26
2017-01-16T12:57:48.324Z,0.26
2017-01-16T13:00:00.553Z,0.23
2017-01-16T13:02:12.834Z,0.21
2017-01-16T13:04:25.023Z,0.21
2017-01-16T13:06:37.381Z,0.21
2017-01-16T13:08:44.731Z,0.21
2017-01-16T13:10:51.939Z,0.21
2017-01-16T13:13:04.110Z,0.2
2017-01-16T13:15:16.399Z,0.21
2017-01-16T13:17:28.717Z,0.23
2017-01-16T13:19:41.109Z,0.21
2017-01-16T13:21:48.594Z,0.21
2017-01-16T13:24:00.819Z,0.21
2017-01-16T13:26:13.217Z,0.21
2017-01-16T13:28:25.579Z,0.21
2017-01-16T13:30:32.862Z,0.2
2017-01-16T13:32:45.128Z,0.18
2017-01-16T13:34:57.619Z,0.17
2017-01-16T13:37:10.056Z,0.17
2017-01-16T13:39:22.282Z,0.14
2017-01-16T13:41:34.501Z,0.14
2017-01-16T13:43:41.783Z,0.15
2017-01-16T13:45:49.069Z,0.15
2017-01-16T13:47:56.555Z,0.17
2017-01-16T13:50:03.813Z,0.17
2017-01-16T13:52:16.048Z,0.15
2017-01-16T13:54:28.456Z,0.15
2017-01-16T13:56:40.875Z,0.17
2017-01-16T13:58:53.353Z,0.17
2017-01-16T14:01:05.935Z,0.15
2017-01-16T14:03:13.451Z,0.17
2017-01-16T14:05:25.703Z,0.18
2017-01-16T14:07:37.937Z,0.17
2017-01-16T14:09:50.244Z,0.17
2017-01-16T14:12:02.405Z,0.15
2017-01-16T14:14:14.576Z,0.15
2017-01-16T14:16:26.949Z,0.15
2017-01-16T14:18:34.235Z,0.15
2017-01-16T14:20:41.502Z,0.15
2017-01-16T14:22:53.928Z,0.14
2017-01-16T14:25:06.098Z,0.14
2017-01-16T14:27:13.425Z,0.14
2017-01-16T14:29:20.666Z,0.14
2017-01-16T14:31:33.219Z,0.13
2017-01-16T14:33:45.740Z,0.13
2017-01-16T14:35:58.087Z,0.13
2017-01-16T14:38:10.527Z,0.11
2017-01-16T14:40:28.024Z,0.13
2017-01-16T14:42:35.424Z,0.13
2017-01-16T14:44:47.876Z,0.11
2017-01-16T14:47:00.145Z,0.11
2017-01-16T14:49:07.619Z,0.1
2017-01-16T14:51:20.246Z,0.1
2017-01-16T14:53:32.583Z,0.08
2017-01-16T14:55:45.775Z,0.08
2017-01-16T14:58:00.062Z,0.08
2017-01-16T15:00:07.702Z,0.07
2017-01-16T15:02:19.937Z,0.07
2017-01-16T15:04:32.419Z,0.04
2017-01-16T15:06:44.819Z,0.03
2017-01-16T15:08:58.055Z,0.02
2017-01-16T15:11:10.487Z,0
2017-01-16T15:13:18.196Z,-0.03
2017-01-16T15:15:30.849Z,-0.04
2017-01-16T15:17:43.268Z,-0.07
2017-01-16T15:19:55.571Z,-0.1
2017-01-16T15:22:08.060Z,-0.11
2017-01-16T15:24:20.479Z,-0.16
2017-01-16T15:26:32.868Z,-0.21
2017-01-16T15:28:40.280Z,-0.25
2017-01-16T15:30:52.665Z,-0.29
2017-01-16T15:33:05.079Z,-0.37
2017-01-16T15:35:17.342Z,-0.43
2017-01-16T15:37:24.708Z,-0.49
2017-01-16T15:39:37.004Z,-0.55
2017-01-16T15:41:39.526Z,-0.64
2017-01-16T15:43:51.751Z,-0.73
2017-01-16T15:46:04.256Z,-0.8
2017-01-16T15:48:17.556Z,-0.92
2017-01-16T15:50:30.415Z,-0.99
2017-01-16T15:52:42.698Z,-1.07
2017-01-16T15:54:54.977Z,-1.13
2017-01-16T15:57:02.395Z,-1.19
2017-01-16T15:59:14.696Z,-1.23
2017-01-16T16:01:22.158Z,-1.31
2017-01-16T16:03:34.439Z,-1.34
2017-01-16T16:05:46.786Z,-1.41
2017-01-16T16:07:54.148Z,-1.45
2017-01-16T16:10:06.481Z,-1.51
2017-01-16T16:12:18.962Z,-1.55
2017-01-16T16:14:31.192Z,-1.59
2017-01-16T16:16:43.635Z,-1.64
2017-01-16T16:18:51.336Z,-1.69
2017-01-16T16:21:04.316Z,-1.73
2017-01-16T16:23:16.574Z,-1.79
2017-01-16T16:25:28.888Z,-1.84
2017-01-16T16:27:36.672Z,-1.88
2017-01-16T16:29:49.072Z,-1.92
2017-01-16T16:32:01.492Z,-1.98
2017-01-16T16:34:13.835Z,-2.03
2017-01-16T16:36:26.474Z,-2.06
2017-01-16T16:38:38.894Z,-2.09
2017-01-16T16:40:46.252Z,-2.15
2017-01-16T16:42:53.639Z,-2.2
2017-01-16T16:45:05.964Z,-2.23
2017-01-16T16:47:18.274Z,-2.27
2017-01-16T16:49:25.630Z,-2.32
2017-01-16T16:51:37.930Z,-2.37
2017-01-16T16:53:50.283Z,-2.4
2017-01-16T16:56:02.956Z,-2.43
2017-01-16T16:58:10.206Z,-2.48
2017-01-16T17:00:22.503Z,-2.52
2017-01-16T17:02:29.910Z,-2.55
2017-01-16T17:04:42.343Z,-2.56
2017-01-16T17:06:54.825Z,-2.6
2017-01-16T17:09:02.417Z,-2.63
2017-01-16T17:11:14.862Z,-2.66
2017-01-16T17:13:27.328Z,-2.67
2017-01-16T17:15:39.843Z,-2.71
2017-01-16T17:17:52.261Z,-2.71
2017-01-16T17:20:04.758Z,-2.74
2017-01-16T17:22:17.100Z,-2.78
2017-01-16T17:24:29.857Z,-2.79
2017-01-16T17:26:43.687Z,-2.82
2017-01-16T17:28:56.620Z,-2.84
2017-01-16T17:31:05.171Z,-2.84
2017-01-16T17:33:18.255Z,-2.86
2017-01-16T17:35:30.765Z,-2.89
2017-01-16T17:37:43.010Z,-2.91
2017-01-16T17:39:55.288Z,-2.94
2017-01-16T17:42:07.996Z,-2.96
2017-01-16T17:44:20.707Z,-2.97
2017-01-16T17:46:33.097Z,-3
2017-01-16T17:48:45.495Z,-3.03
2017-01-16T17:50:54.533Z,-3.05
2017-01-16T17:53:10.701Z,-3.07
2017-01-16T17:55:18.277Z,-3.07
2017-01-16T17:57:30.599Z,-3.09
2017-01-16T17:59:38.412Z,-3.1
2017-01-16T18:01:45.922Z,-3.14
2017-01-16T18:03:58.346Z,-3.17
2017-01-16T18:06:10.836Z,-3.17
2017-01-16T18:08:23.201Z,-3.2
2017-01-16T18:10:35.627Z,-3.23
2017-01-16T18:12:48.107Z,-3.24
2017-01-16T18:14:55.575Z,-3.25
2017-01-16T18:17:08.026Z,-3.27
2017-01-16T18:19:20.636Z,-3.3
2017-01-16T18:21:33.748Z,-3.31
2017-01-16T18:23:46.461Z,-3.35
2017-01-16T18:25:58.747Z,-3.36
2017-01-16T18:28:11.268Z,-3.38
2017-01-16T18:30:23.663Z,-3.39
2017-01-16T18:32:36.054Z,-3.42
2017-01-16T18:34:48.780Z,-3.43
2017-01-16T18:37:01.018Z,-3.45
2017-01-16T18:39:13.687Z,-3.45
2017-01-16T18:41:26.235Z,-3.48
2017-01-16T18:43:38.893Z,-3.49
2017-01-16T18:45:51.341Z,-3.52
2017-01-16T18:48:03.865Z,-3.49
2017-01-16T18:50:16.468Z,-3.53
2017-01-16T18:52:28.824Z,-3.52
2017-01-16T18:54:41.294Z,-3.54
2017-01-16T18:56:53.679Z,-3.54
2017-01-16T18:59:06.364Z,-3.54
2017-01-16T19:01:18.957Z,-3.54
2017-01-16T19:03:31.444Z,-3.57
2017-01-16T19:05:43.894Z,-3.57
2017-01-16T19:07:56.419Z,-3.57
2017-01-16T19:10:08.894Z,-3.59
2017-01-16T19:12:21.266Z,-3.57
2017-01-16T19:14:33.600Z,-3.6
2017-01-16T19:16:41.176Z,-3.59
2017-01-16T19:18:48.663Z,-3.59
2017-01-16T19:21:01.190Z,-3.6
2017-01-16T19:23:13.662Z,-3.6
2017-01-16T19:25:26.084Z,-3.6
2017-01-16T19:27:38.385Z,-3.62
2017-01-16T19:29:50.562Z,-3.6
2017-01-16T19:32:03.075Z,-3.62
2017-01-16T19:34:15.485Z,-3.63
2017-01-16T19:36:27.967Z,-3.62
2017-01-16T19:38:40.827Z,-3.62
2017-01-16T19:40:53.476Z,-3.62
2017-01-16T19:43:06.675Z,-3.64
2017-01-16T19:45:14.118Z,-3.63
2017-01-16T19:47:26.506Z,-3.64
2017-01-16T19:49:38.917Z,-3.64
2017-01-16T19:51:51.412Z,-3.64
2017-01-16T19:54:05.078Z,-3.66
2017-01-16T19:56:18.084Z,-3.67
2017-01-16T19:58:31.464Z,-3.69
2017-01-16T20:00:45.467Z,-3.67
2017-01-16T20:02:59.518Z,-3.69
2017-01-16T20:05:13.164Z,-3.69
2017-01-16T20:07:21.113Z,-3.71
2017-01-16T20:09:28.623Z,-3.69
2017-01-16T20:11:42.242Z,-3.71
2017-01-16T20:13:57.441Z,-3.72
2017-01-16T20:16:15.901Z,-3.72
2017-01-16T20:18:36.752Z,-3.72
2017-01-16T20:20:49.104Z,-3.72
2017-01-16T20:23:01.990Z,-3.72
2017-01-16T20:25:15.489Z,-3.71
2017-01-16T20:27:23.464Z,-3.72
2017-01-16T20:29:35.955Z,-3.72
2017-01-16T20:31:48.425Z,-3.72
2017-01-16T20:33:55.999Z,-3.72
2017-01-16T20:36:08.279Z,-3.71
2017-01-16T20:38:20.640Z,-3.72
2017-01-16T20:40:32.943Z,-3.72
2017-01-16T20:42:45.446Z,-3.72
2017-01-16T20:44:57.740Z,-3.71
2017-01-16T20:47:10.459Z,-3.71
2017-01-16T20:49:23.148Z,-3.71
2017-01-16T20:51:35.955Z,-3.71
2017-01-16T20:53:48.330Z,-3.72
2017-01-16T20:56:00.755Z,-3.69
2017-01-16T20:58:13.006Z,-3.71
2017-01-16T21:00:25.296Z,-3.71
2017-01-16T21:02:37.745Z,-3.71
2017-01-16T21:04:50.030Z,-3.69
2017-01-16T21:07:02.585Z,-3.67
2017-01-16T21:09:14.845Z,-3.69
2017-01-16T21:11:27.189Z,-3.67
2017-01-16T21:13:39.613Z,-3.67
2017-01-16T21:15:51.854Z,-3.66
2017-01-16T21:18:04.127Z,-3.66
2017-01-16T21:20:16.524Z,-3.64
2017-01-16T21:22:24.090Z,-3.66
2017-01-16T21:24:36.628Z,-3.66
2017-01-16T21:26:51.906Z,-3.64
2017-01-16T21:29:05.832Z,-3.64
2017-01-16T21:31:18.824Z,-3.64
2017-01-16T21:33:31.444Z,-3.64
2017-01-16T21:35:47.627Z,-3.64
2017-01-16T21:38:00.049Z,-3.63
2017-01-16T21:40:12.536Z,-3.63
2017-01-16T21:42:24.927Z,-3.64
2017-01-16T21:44:32.513Z,-3.63
2017-01-16T21:46:40.005Z,-3.62
2017-01-16T21:48:52.753Z,-3.63
2017-01-16T21:51:00.072Z,-3.62
2017-01-16T21:53:12.306Z,-3.62
2017-01-16T21:55:30.672Z,-3.62
2017-01-16T21:57:53.607Z,-3.62
2017-01-16T22:00:21.535Z,-3.63
2017-01-16T22:02:34.110Z,-3.62
2017-01-16T22:04:49.621Z,-3.62
2017-01-16T22:07:14.553Z,-3.62
2017-01-16T22:09:26.990Z,-3.62
2017-01-16T22:11:39.407Z,-3.62
2017-01-16T22:13:41.825Z,-3.62
2017-01-16T22:15:59.670Z,-3.63
2017-01-16T22:18:18.014Z,-3.63
2017-01-16T22:20:36.555Z,-3.62
2017-01-16T22:22:45.415Z,-3.64
2017-01-16T22:25:03.997Z,-3.64
2017-01-16T22:27:22.587Z,-3.63
2017-01-16T22:29:39.846Z,-3.63
2017-01-16T22:31:47.766Z,-3.64
2017-01-16T22:34:25.140Z,-3.64
2017-01-16T22:36:43.686Z,-3.64
2017-01-16T22:39:01.315Z,-3.66
2017-01-16T22:41:20.754Z,-3.64
2017-01-16T22:43:50.523Z,-3.66
2017-01-16T22:46:09.274Z,-3.66
2017-01-16T22:48:28.088Z,-3.66
2017-01-16T22:50:47.741Z,-3.69
2017-01-16T22:53:05.918Z,-3.69
2017-01-16T22:55:19.417Z,-3.69
2017-01-16T22:57:26.864Z,-3.71
2017-01-16T22:59:39.793Z,-3.69
2017-01-16T23:01:52.401Z,-3.69
2017-01-16T23:04:09.312Z,-3.71
2017-01-16T23:06:16.556Z,-3.71
2017-01-16T23:08:28.883Z,-3.71
2017-01-16T23:10:41.525Z,-3.72
2017-01-16T23:12:49.021Z,-3.72
2017-01-16T23:15:01.332Z,-3.75
2017-01-16T23:17:13.747Z,-3.75
2017-01-16T23:19:20.934Z,-3.75
2017-01-16T23:21:33.379Z,-3.75
2017-01-16T23:23:45.650Z,-3.76
2017-01-16T23:25:57.830Z,-3.78
2017-01-16T23:28:10.081Z,-3.76
2017-01-16T23:30:22.294Z,-3.79
2017-01-16T23:32:29.767Z,-3.78
2017-01-16T23:34:42.080Z,-3.78
2017-01-16T23:36:54.294Z,-3.79
2017-01-16T23:39:06.554Z,-3.79
2017-01-16T23:41:13.850Z,-3.81
2017-01-16T23:43:21.254Z,-3.82
2017-01-16T23:45:33.916Z,-3.82
2017-01-16T23:47:41.258Z,-3.82
2017-01-16T23:49:53.410Z,-3.82
2017-01-16T23:52:05.627Z,-3.82
2017-01-16T23:54:17.831Z,-3.83
2017-01-16T23:56:25.164Z,-3.85
2017-01-16T23:58:48.671Z,-3.83
